Uni-arise — 3FSV7 — position and weather

sailwx.info

Track history (hours):
 
Tides and Currents Weather Stations Pressure Air Temp Water Temp Dewpoint Dewpoint Depression Visibility Wind Speed Wind Dir Waves Ship Positions

Uni-arise

Last reported at 2014-Sep-13 14:04 UTC. Time now 2014-Sep-18 01:34 UTC.
Position N 01°15' E 104°07'.

Length 165 m; draft 7.1 m.

Type: Cargo ship. MMSI: 351608000.

Date/timePositionNaut miles runAvg speedWind from/ knotsBaromVisibWave heightAir tempDewpointWater temp
2014-Sep-13 14:04N 01°15' E 104°07'816.6
2014-Sep-13 13:34N 01°14' E 103°59'1211.8
2014-Sep-13 12:33N 01°14' E 103°47'2 1.7
2014-Sep-13 11:33N 01°16' E 103°47'0 0.0
2014-Sep-13 10:26N 01°16' E 103°47'0 0.0
2014-Sep-13 09:33N 01°16' E 103°47'0 0.0
2014-Sep-13 08:34N 01°16' E 103°47'0 0.0
2014-Sep-13 07:34N 01°16' E 103°47'0 0.0
2014-Sep-13 06:34N 01°16' E 103°47'0 0.0
2014-Sep-13 05:34N 01°16' E 103°47'0 0.0
2014-Sep-13 04:33N 01°16' E 103°47'0 0.0
2014-Sep-13 03:33N 01°16' E 103°47'0 0.0
2014-Sep-13 02:34N 01°16' E 103°47'0 0.0
2014-Sep-13 01:24N 01°16' E 103°47'0 0.0
2014-Sep-13 00:32N 01°16' E 103°47'0 0.0
2014-Sep-12 23:33N 01°16' E 103°47'0 0.0
2014-Sep-12 22:31N 01°16' E 103°47'0 0.0
2014-Sep-12 21:33N 01°16' E 103°47'0 0.0
2014-Sep-12 20:34N 01°16' E 103°47'0 0.0
2014-Sep-12 19:33N 01°16' E 103°47'0 0.0
2014-Sep-12 18:34N 01°16' E 103°47'0 0.0
2014-Sep-12 17:34N 01°16' E 103°47'0 0.0
2014-Sep-12 16:27N 01°16' E 103°47'3 3.0
2014-Sep-12 15:27N 01°13' E 103°48'1 0.1
2014-Sep-11 23:32N 01°13' E 103°49'0 0.0
2014-Sep-11 22:32N 01°13' E 103°49'1 0.7
2014-Sep-11 21:33N 01°13' E 103°49'5 4.6
2014-Sep-11 20:33N 01°14' E 103°54'7 7.0
2014-Sep-11 19:33N 01°15' E 104°00'  
2014-Sep-08 00:33N 01°15' E 104°05'1615.6
2014-Sep-07 23:33N 01°11' E 103°50'  
2014-Sep-05 14:33N 01°12' E 103°52'1414.1
2014-Sep-05 13:32N 01°16' E 104°06'  
Track history (hours):
 
Tides and Currents Weather Stations Pressure Air Temp Water Temp Dewpoint Dewpoint Depression Visibility Wind Speed Wind Dir Waves Ship Positions

Uni-arise

Last reported at 2014-Sep-13 14:04 UTC. Time now 2014-Sep-18 01:34 UTC.
Position N 01°15' E 104°07'.

Length 165 m; draft 7.1 m.

Type: Cargo ship. MMSI: 351608000.

Date/timePositionNaut miles runAvg speedWind from/ knotsBaromVisibWave heightAir tempDewpointWater temp
2014-Sep-13 14:04N 01°15' E 104°07'816.6
2014-Sep-13 13:34N 01°14' E 103°59'1211.8
2014-Sep-13 12:33N 01°14' E 103°47'2 1.7
2014-Sep-13 11:33N 01°16' E 103°47'0 0.0
2014-Sep-13 10:26N 01°16' E 103°47'0 0.0
2014-Sep-13 09:33N 01°16' E 103°47'0 0.0
2014-Sep-13 08:34N 01°16' E 103°47'0 0.0
2014-Sep-13 07:34N 01°16' E 103°47'0 0.0
2014-Sep-13 06:34N 01°16' E 103°47'0 0.0
2014-Sep-13 05:34N 01°16' E 103°47'0 0.0
2014-Sep-13 04:33N 01°16' E 103°47'0 0.0
2014-Sep-13 03:33N 01°16' E 103°47'0 0.0
2014-Sep-13 02:34N 01°16' E 103°47'0 0.0
2014-Sep-13 01:24N 01°16' E 103°47'0 0.0
2014-Sep-13 00:32N 01°16' E 103°47'0 0.0
2014-Sep-12 23:33N 01°16' E 103°47'0 0.0
2014-Sep-12 22:31N 01°16' E 103°47'0 0.0
2014-Sep-12 21:33N 01°16' E 103°47'0 0.0
2014-Sep-12 20:34N 01°16' E 103°47'0 0.0
2014-Sep-12 19:33N 01°16' E 103°47'0 0.0
2014-Sep-12 18:34N 01°16' E 103°47'0 0.0
2014-Sep-12 17:34N 01°16' E 103°47'0 0.0
2014-Sep-12 16:27N 01°16' E 103°47'3 3.0
2014-Sep-12 15:27N 01°13' E 103°48'1 0.1
2014-Sep-11 23:32N 01°13' E 103°49'0 0.0
2014-Sep-11 22:32N 01°13' E 103°49'1 0.7
2014-Sep-11 21:33N 01°13' E 103°49'5 4.6
2014-Sep-11 20:33N 01°14' E 103°54'7 7.0
2014-Sep-11 19:33N 01°15' E 104°00'  
2014-Sep-08 00:33N 01°15' E 104°05'1615.6
2014-Sep-07 23:33N 01°11' E 103°50'  
2014-Sep-05 14:33N 01°12' E 103°52'1414.1
2014-Sep-05 13:32N 01°16' E 104°06'  

Dump ship's entire track history